sensor_id;sensor_type;location;lat;lon;timestamp;pressure;altitude;pressure_sealevel;temperature
27986;BMP280;15453;53.692;10.168;2022-10-26T00:00:08;101316.69;;;15.51
27986;BMP280;15453;53.692;10.168;2022-10-26T00:02:33;101316.97;;;15.49
27986;BMP280;15453;53.692;10.168;2022-10-26T00:04:59;101315.56;;;15.47
27986;BMP280;15453;53.692;10.168;2022-10-26T00:07:24;101319.69;;;15.44
27986;BMP280;15453;53.692;10.168;2022-10-26T00:09:49;101319.69;;;15.44
27986;BMP280;15453;53.692;10.168;2022-10-26T00:12:14;101320.53;;;15.40
27986;BMP280;15453;53.692;10.168;2022-10-26T00:14:40;101318.84;;;15.39
27986;BMP280;15453;53.692;10.168;2022-10-26T00:17:05;101310.00;;;15.37
27986;BMP280;15453;53.692;10.168;2022-10-26T00:19:33;101308.34;;;15.36
27986;BMP280;15453;53.692;10.168;2022-10-26T00:21:59;101320.47;;;15.35
27986;BMP280;15453;53.692;10.168;2022-10-26T00:24:24;101320.47;;;15.35
27986;BMP280;15453;53.692;10.168;2022-10-26T00:26:49;101322.91;;;15.31
27986;BMP280;15453;53.692;10.168;2022-10-26T00:29:15;101322.91;;;15.31
27986;BMP280;15453;53.692;10.168;2022-10-26T00:31:42;101319.28;;;15.26
27986;BMP280;15453;53.692;10.168;2022-10-26T00:34:09;101313.22;;;15.24
27986;BMP280;15453;53.692;10.168;2022-10-26T00:36:35;101322.00;;;15.21
27986;BMP280;15453;53.692;10.168;2022-10-26T00:39:00;101325.88;;;15.20
27986;BMP280;15453;53.692;10.168;2022-10-26T00:41:29;101325.56;;;15.16
27986;BMP280;15453;53.692;10.168;2022-10-26T00:43:55;101320.88;;;15.17
27986;BMP280;15453;53.692;10.168;2022-10-26T00:46:25;101327.50;;;15.16
27986;BMP280;15453;53.692;10.168;2022-10-26T00:48:58;101321.13;;;15.15
27986;BMP280;15453;53.692;10.168;2022-10-26T00:51:29;101330.25;;;15.16
27986;BMP280;15453;53.692;10.168;2022-10-26T00:53:58;101323.34;;;15.13
27986;BMP280;15453;53.692;10.168;2022-10-26T00:56:24;101326.38;;;15.12
27986;BMP280;15453;53.692;10.168;2022-10-26T00:58:50;101325.53;;;15.11
27986;BMP280;15453;53.692;10.168;2022-10-26T01:01:15;101323.03;;;15.10
27986;BMP280;15453;53.692;10.168;2022-10-26T01:03:41;101326.88;;;15.09
27986;BMP280;15453;53.692;10.168;2022-10-26T01:06:07;101327.41;;;15.06
27986;BMP280;15453;53.692;10.168;2022-10-26T01:08:32;101330.47;;;15.04
27986;BMP280;15453;53.692;10.168;2022-10-26T01:10:59;101320.50;;;15.03
27986;BMP280;15453;53.692;10.168;2022-10-26T01:13:27;101325.47;;;15.01
27986;BMP280;15453;53.692;10.168;2022-10-26T01:22:06;101313.81;;;14.94
27986;BMP280;15453;53.692;10.168;2022-10-26T01:24:45;101317.94;;;14.92
27986;BMP280;15453;53.692;10.168;2022-10-26T01:27:33;101319.03;;;14.91
27986;BMP280;15453;53.692;10.168;2022-10-26T01:30:16;101310.44;;;14.87
27986;BMP280;15453;53.692;10.168;2022-10-26T01:38:35;101312.00;;;14.78
27986;BMP280;15453;53.692;10.168;2022-10-26T01:41:23;101306.22;;;14.75
27986;BMP280;15453;53.692;10.168;2022-10-26T01:44:03;101306.72;;;14.72
27986;BMP280;15453;53.692;10.168;2022-10-26T01:46:37;101305.06;;;14.71
27986;BMP280;15453;53.692;10.168;2022-10-26T01:49:10;101298.94;;;14.64
27986;BMP280;15453;53.692;10.168;2022-10-26T01:51:38;101311.09;;;14.68
27986;BMP280;15453;53.692;10.168;2022-10-26T01:54:04;101303.38;;;14.65
27986;BMP280;15453;53.692;10.168;2022-10-26T01:56:33;101306.66;;;14.62
27986;BMP280;15453;53.692;10.168;2022-10-26T01:59:20;101306.66;;;14.62
27986;BMP280;15453;53.692;10.168;2022-10-26T02:04:37;101303.84;;;14.57
27986;BMP280;15453;53.692;10.168;2022-10-26T02:07:13;101304.88;;;14.51
27986;BMP280;15453;53.692;10.168;2022-10-26T02:09:49;101301.31;;;14.50
27986;BMP280;15453;53.692;10.168;2022-10-26T02:12:32;101304.31;;;14.49
27986;BMP280;15453;53.692;10.168;2022-10-26T02:17:43;101292.72;;;14.47
27986;BMP280;15453;53.692;10.168;2022-10-26T02:20:14;101295.19;;;14.43
27986;BMP280;15453;53.692;10.168;2022-10-26T02:22:44;101290.19;;;14.40
27986;BMP280;15453;53.692;10.168;2022-10-26T02:25:15;101298.69;;;14.39
27986;BMP280;15453;53.692;10.168;2022-10-26T02:27:44;101298.97;;;14.37
27986;BMP280;15453;53.692;10.168;2022-10-26T02:30:11;101294.81;;;14.35
27986;BMP280;15453;53.692;10.168;2022-10-26T02:32:41;101295.34;;;14.32
27986;BMP280;15453;53.692;10.168;2022-10-26T02:35:11;101301.38;;;14.29
27986;BMP280;15453;53.692;10.168;2022-10-26T02:37:38;101297.75;;;14.28
27986;BMP280;15453;53.692;10.168;2022-10-26T02:40:08;101290.84;;;14.26
27986;BMP280;15453;53.692;10.168;2022-10-26T02:42:36;101294.72;;;14.25
27986;BMP280;15453;53.692;10.168;2022-10-26T02:45:08;101283.09;;;14.23
27986;BMP280;15453;53.692;10.168;2022-10-26T02:47:34;101288.63;;;14.23
27986;BMP280;15453;53.692;10.168;2022-10-26T02:49:59;101288.63;;;14.23
27986;BMP280;15453;53.692;10.168;2022-10-26T02:52:27;101296.25;;;14.16
27986;BMP280;15453;53.692;10.168;2022-10-26T02:55:04;101302.00;;;14.14
27986;BMP280;15453;53.692;10.168;2022-10-26T02:57:39;101302.50;;;14.11
27986;BMP280;15453;53.692;10.168;2022-10-26T03:00:08;101292.84;;;14.09
27986;BMP280;15453;53.692;10.168;2022-10-26T03:02:34;101298.09;;;14.10
27986;BMP280;15453;53.692;10.168;2022-10-26T03:05:09;101286.53;;;14.08
27986;BMP280;15453;53.692;10.168;2022-10-26T03:07:36;101291.44;;;14.06
27986;BMP280;15453;53.692;10.168;2022-10-26T03:10:01;101286.78;;;14.07
27986;BMP280;15453;53.692;10.168;2022-10-26T03:12:26;101287.03;;;14.05
27986;BMP280;15453;53.692;10.168;2022-10-26T03:14:51;101290.88;;;14.04
27986;BMP280;15453;53.692;10.168;2022-10-26T03:17:17;101302.97;;;14.03
27986;BMP280;15453;53.692;10.168;2022-10-26T03:19:42;101300.22;;;14.03
27986;BMP280;15453;53.692;10.168;2022-10-26T03:22:07;101299.66;;;14.01
27986;BMP280;15453;53.692;10.168;2022-10-26T03:24:32;101298.81;;;14.01
27986;BMP280;15453;53.692;10.168;2022-10-26T03:26:58;101295.25;;;14.00
27986;BMP280;15453;53.692;10.168;2022-10-26T03:29:23;101296.91;;;14.01
27986;BMP280;15453;53.692;10.168;2022-10-26T03:31:48;101296.41;;;14.04
27986;BMP280;15453;53.692;10.168;2022-10-26T03:34:18;101297.22;;;14.05
27986;BMP280;15453;53.692;10.168;2022-10-26T03:36:43;101297.22;;;14.05
27986;BMP280;15453;53.692;10.168;2022-10-26T03:39:08;101286.69;;;14.02
27986;BMP280;15453;53.692;10.168;2022-10-26T03:41:34;101292.22;;;14.02
27986;BMP280;15453;53.692;10.168;2022-10-26T03:43:59;101291.66;;;14.00
27986;BMP280;15453;53.692;10.168;2022-10-26T03:46:24;101284.75;;;13.97
27986;BMP280;15453;53.692;10.168;2022-10-26T03:48:49;101300.66;;;13.95
27986;BMP280;15453;53.692;10.168;2022-10-26T03:51:15;101289.09;;;13.93
27986;BMP280;15453;53.692;10.168;2022-10-26T03:53:40;101286.59;;;13.92
27986;BMP280;15453;53.692;10.168;2022-10-26T03:56:05;101296.78;;;13.91
27986;BMP280;15453;53.692;10.168;2022-10-26T03:58:30;101285.19;;;13.89
27986;BMP280;15453;53.692;10.168;2022-10-26T04:00:56;101292.06;;;13.87
27986;BMP280;15453;53.692;10.168;2022-10-26T04:03:21;101296.47;;;13.88
27986;BMP280;15453;53.692;10.168;2022-10-26T04:05:46;101289.56;;;13.85
27986;BMP280;15453;53.692;10.168;2022-10-26T04:08:11;101294.50;;;13.83
27986;BMP280;15453;53.692;10.168;2022-10-26T04:10:37;101289.25;;;13.82
27986;BMP280;15453;53.692;10.168;2022-10-26T04:13:02;101283.75;;;13.82
27986;BMP280;15453;53.692;10.168;2022-10-26T04:15:28;101290.06;;;13.82
27986;BMP280;15453;53.692;10.168;2022-10-26T04:17:57;101288.66;;;13.80
27986;BMP280;15453;53.692;10.168;2022-10-26T04:20:23;101299.66;;;13.80
27986;BMP280;15453;53.692;10.168;2022-10-26T04:22:58;101297.41;;;13.77
27986;BMP280;15453;53.692;10.168;2022-10-26T04:25:24;101300.47;;;13.75
27986;BMP280;15453;53.692;10.168;2022-10-26T04:27:49;101290.25;;;13.76
27986;BMP280;15453;53.692;10.168;2022-10-26T04:30:14;101288.00;;;13.73
27986;BMP280;15453;53.692;10.168;2022-10-26T04:32:40;101288.84;;;13.73
27986;BMP280;15453;53.692;10.168;2022-10-26T04:35:05;101284.69;;;13.71
27986;BMP280;15453;53.692;10.168;2022-10-26T04:37:30;101302.06;;;13.71
27986;BMP280;15453;53.692;10.168;2022-10-26T04:39:57;101291.31;;;13.70
27986;BMP280;15453;53.692;10.168;2022-10-26T04:42:22;101286.88;;;13.69
27986;BMP280;15453;53.692;10.168;2022-10-26T04:44:47;101288.78;;;13.68
27986;BMP280;15453;53.692;10.168;2022-10-26T04:47:12;101283.28;;;13.68
27986;BMP280;15453;53.692;10.168;2022-10-26T04:49:37;101282.19;;;13.69
27986;BMP280;15453;53.692;10.168;2022-10-26T04:52:04;101282.19;;;13.69
27986;BMP280;15453;53.692;10.168;2022-10-26T04:54:29;101272.78;;;13.65
27986;BMP280;15453;53.692;10.168;2022-10-26T04:56:55;101275.78;;;13.64
27986;BMP280;15453;53.692;10.168;2022-10-26T04:59:20;101272.22;;;13.63
27986;BMP280;15453;53.692;10.168;2022-10-26T05:01:45;101275.22;;;13.62
27986;BMP280;15453;53.692;10.168;2022-10-26T05:04:10;101268.88;;;13.61
27986;BMP280;15453;53.692;10.168;2022-10-26T05:06:36;101278.22;;;13.60
27986;BMP280;15453;53.692;10.168;2022-10-26T05:09:01;101274.63;;;13.60
27986;BMP280;15453;53.692;10.168;2022-10-26T05:11:26;101277.66;;;13.58
27986;BMP280;15453;53.692;10.168;2022-10-26T05:13:51;101275.72;;;13.59
27986;BMP280;15453;53.692;10.168;2022-10-26T05:16:17;101280.13;;;13.60
27986;BMP280;15453;53.692;10.168;2022-10-26T05:18:42;101271.31;;;13.58
27986;BMP280;15453;53.692;10.168;2022-10-26T05:21:07;101274.31;;;13.56
27986;BMP280;15453;53.692;10.168;2022-10-26T05:23:32;101262.75;;;13.54
27986;BMP280;15453;53.692;10.168;2022-10-26T05:25:58;101263.00;;;13.53
27986;BMP280;15453;53.692;10.168;2022-10-26T05:28:23;101270.41;;;13.52
27986;BMP280;15453;53.692;10.168;2022-10-26T05:30:48;101277.84;;;13.52
27986;BMP280;15453;53.692;10.168;2022-10-26T05:33:14;101277.84;;;13.52
27986;BMP280;15453;53.692;10.168;2022-10-26T05:35:39;101275.88;;;13.47
27986;BMP280;15453;53.692;10.168;2022-10-26T05:38:09;101269.78;;;13.45
27986;BMP280;15453;53.692;10.168;2022-10-26T05:40:34;101272.53;;;13.45
27986;BMP280;15453;53.692;10.168;2022-10-26T05:43:00;101278.63;;;13.47
27986;BMP280;15453;53.692;10.168;2022-10-26T05:45:26;101272.53;;;13.45
27986;BMP280;15453;53.692;10.168;2022-10-26T05:47:51;101278.88;;;13.46
27986;BMP280;15453;53.692;10.168;2022-10-26T05:50:16;101283.53;;;13.45
27986;BMP280;15453;53.692;10.168;2022-10-26T05:52:44;101285.72;;;13.43
27986;BMP280;15453;53.692;10.168;2022-10-26T05:55:12;101289.88;;;13.46
27986;BMP280;15453;53.692;10.168;2022-10-26T05:57:38;101289.88;;;13.46
27986;BMP280;15453;53.692;10.168;2022-10-26T06:00:25;101293.13;;;13.43
27986;BMP280;15453;53.692;10.168;2022-10-26T06:03:05;101293.13;;;13.43
27986;BMP280;15453;53.692;10.168;2022-10-26T06:05:49;101287.06;;;13.41
27986;BMP280;15453;53.692;10.168;2022-10-26T06:08:16;101285.41;;;13.40
27986;BMP280;15453;53.692;10.168;2022-10-26T06:10:41;101305.47;;;13.40
27986;BMP280;15453;53.692;10.168;2022-10-26T06:13:07;101305.47;;;13.40
27986;BMP280;15453;53.692;10.168;2022-10-26T06:15:41;101308.72;;;13.37
27986;BMP280;15453;53.692;10.168;2022-10-26T06:18:14;101307.91;;;13.37
27986;BMP280;15453;53.692;10.168;2022-10-26T06:20:53;101307.91;;;13.37
27986;BMP280;15453;53.692;10.168;2022-10-26T06:26:52;101297.09;;;13.30
27986;BMP280;15453;53.692;10.168;2022-10-26T06:32:21;101303.41;;;13.31
27986;BMP280;15453;53.692;10.168;2022-10-26T06:34:48;101310.00;;;13.30
27986;BMP280;15453;53.692;10.168;2022-10-26T06:37:15;101311.09;;;13.29
27986;BMP280;15453;53.692;10.168;2022-10-26T06:39:44;101311.09;;;13.29
27986;BMP280;15453;53.692;10.168;2022-10-26T06:42:10;101307.19;;;13.25
27986;BMP280;15453;53.692;10.168;2022-10-26T06:44:36;101311.03;;;13.24
27986;BMP280;15453;53.692;10.168;2022-10-26T06:47:23;101308.53;;;13.22
27986;BMP280;15453;53.692;10.168;2022-10-26T06:52:37;101316.78;;;13.22
27986;BMP280;15453;53.692;10.168;2022-10-26T06:55:04;101324.19;;;13.22
27986;BMP280;15453;53.692;10.168;2022-10-26T06:57:34;101324.19;;;13.22
27986;BMP280;15453;53.692;10.168;2022-10-26T07:00:04;101321.97;;;13.19
27986;BMP280;15453;53.692;10.168;2022-10-26T07:02:30;101329.13;;;13.20
27986;BMP280;15453;53.692;10.168;2022-10-26T07:04:55;101328.03;;;13.21
27986;BMP280;15453;53.692;10.168;2022-10-26T07:07:23;101328.03;;;13.21
27986;BMP280;15453;53.692;10.168;2022-10-26T07:09:49;101325.78;;;13.18
27986;BMP280;15453;53.692;10.168;2022-10-26T07:12:14;101334.03;;;13.18
27986;BMP280;15453;53.692;10.168;2022-10-26T07:14:40;101331.28;;;13.18
27986;BMP280;15453;53.692;10.168;2022-10-26T07:17:05;101332.97;;;13.19
27986;BMP280;15453;53.692;10.168;2022-10-26T07:19:30;101342.09;;;13.24
27986;BMP280;15453;53.692;10.168;2022-10-26T07:21:57;101342.09;;;13.24
27986;BMP280;15453;53.692;10.168;2022-10-26T07:24:28;101336.94;;;13.28
27986;BMP280;15453;53.692;10.168;2022-10-26T07:26:54;101336.94;;;13.28
27986;BMP280;15453;53.692;10.168;2022-10-26T07:29:21;101347.53;;;13.36
27986;BMP280;15453;53.692;10.168;2022-10-26T07:31:46;101347.53;;;13.36
27986;BMP280;15453;53.692;10.168;2022-10-26T07:34:11;101333.78;;;13.36
27986;BMP280;15453;53.692;10.168;2022-10-26T07:36:37;101353.16;;;13.46
27986;BMP280;15453;53.692;10.168;2022-10-26T07:39:03;101355.97;;;13.51
27986;BMP280;15453;53.692;10.168;2022-10-26T07:41:29;101355.97;;;13.51
27986;BMP280;15453;53.692;10.168;2022-10-26T07:43:54;101352.78;;;13.59
27986;BMP280;15453;53.692;10.168;2022-10-26T07:46:19;101348.44;;;13.63
27986;BMP280;15453;53.692;10.168;2022-10-26T07:48:44;101348.44;;;13.63
27986;BMP280;15453;53.692;10.168;2022-10-26T07:51:10;101338.66;;;13.72
27986;BMP280;15453;53.692;10.168;2022-10-26T07:53:35;101338.66;;;13.72
27986;BMP280;15453;53.692;10.168;2022-10-26T07:56:00;101342.38;;;13.82
27986;BMP280;15453;53.692;10.168;2022-10-26T07:58:26;101337.22;;;13.86
27986;BMP280;15453;53.692;10.168;2022-10-26T08:00:52;101337.25;;;13.91
27986;BMP280;15453;53.692;10.168;2022-10-26T08:03:18;101337.25;;;13.91
27986;BMP280;15453;53.692;10.168;2022-10-26T08:05:49;101346.47;;;14.01
27986;BMP280;15453;53.692;10.168;2022-10-26T08:08:17;101342.13;;;14.05
27986;BMP280;15453;53.692;10.168;2022-10-26T08:10:44;101342.13;;;14.05
27986;BMP280;15453;53.692;10.168;2022-10-26T08:13:09;101336.72;;;14.15
27986;BMP280;15453;53.692;10.168;2022-10-26T08:15:35;101336.72;;;14.15
27986;BMP280;15453;53.692;10.168;2022-10-26T08:18:00;101338.13;;;14.18
27986;BMP280;15453;53.692;10.168;2022-10-26T08:20:25;101350.72;;;14.30
27986;BMP280;15453;53.692;10.168;2022-10-26T08:22:51;101342.50;;;14.35
27986;BMP280;15453;53.692;10.168;2022-10-26T08:25:17;101342.50;;;14.35
27986;BMP280;15453;53.692;10.168;2022-10-26T08:27:42;101353.91;;;14.44
27986;BMP280;15453;53.692;10.168;2022-10-26T08:30:08;101350.34;;;14.48
27986;BMP280;15453;53.692;10.168;2022-10-26T08:32:33;101343.22;;;14.52
27986;BMP280;15453;53.692;10.168;2022-10-26T08:34:58;101338.84;;;14.56
27986;BMP280;15453;53.692;10.168;2022-10-26T08:37:23;101351.00;;;14.60
27986;BMP280;15453;53.692;10.168;2022-10-26T08:39:49;101343.88;;;14.64
27986;BMP280;15453;53.692;10.168;2022-10-26T08:42:34;101340.38;;;14.69
27986;BMP280;15453;53.692;10.168;2022-10-26T08:45:11;101338.44;;;14.74
27986;BMP280;15453;53.692;10.168;2022-10-26T08:47:46;101338.44;;;14.74
27986;BMP280;15453;53.692;10.168;2022-10-26T08:50:35;101336.84;;;14.78
27986;BMP280;15453;53.692;10.168;2022-10-26T08:55:37;101326.47;;;14.90
27986;BMP280;15453;53.692;10.168;2022-10-26T08:58:06;101319.91;;;14.96
27986;BMP280;15453;53.692;10.168;2022-10-26T09:00:34;101325.25;;;15.13
27986;BMP280;15453;53.692;10.168;2022-10-26T09:03:00;101325.25;;;15.13
27986;BMP280;15453;53.692;10.168;2022-10-26T09:05:34;101312.06;;;15.15
27986;BMP280;15453;53.692;10.168;2022-10-26T09:08:17;101318.41;;;15.20
27986;BMP280;15453;53.692;10.168;2022-10-26T09:11:05;101315.72;;;15.25
27986;BMP280;15453;53.692;10.168;2022-10-26T09:16:26;101318.56;;;15.40
27986;BMP280;15453;53.692;10.168;2022-10-26T09:24:54;101304.59;;;15.57
27986;BMP280;15453;53.692;10.168;2022-10-26T09:27:25;101295.50;;;15.61
27986;BMP280;15453;53.692;10.168;2022-10-26T09:29:53;101299.97;;;15.72
27986;BMP280;15453;53.692;10.168;2022-10-26T09:32:22;101291.44;;;15.79
27986;BMP280;15453;53.692;10.168;2022-10-26T09:34:51;101308.34;;;15.92
27986;BMP280;15453;53.692;10.168;2022-10-26T09:37:22;101308.34;;;15.92
27986;BMP280;15453;53.692;10.168;2022-10-26T09:42:24;101303.69;;;16.08
27986;BMP280;15453;53.692;10.168;2022-10-26T09:44:57;101306.47;;;16.13
27986;BMP280;15453;53.692;10.168;2022-10-26T09:47:38;101309.56;;;16.31
27986;BMP280;15453;53.692;10.168;2022-10-26T09:50:27;101309.56;;;16.36
27986;BMP280;15453;53.692;10.168;2022-10-26T09:52:53;101307.13;;;16.45
27986;BMP280;15453;53.692;10.168;2022-10-26T09:55:18;101318.75;;;16.52
27986;BMP280;15453;53.692;10.168;2022-10-26T09:57:48;101318.75;;;16.52
27986;BMP280;15453;53.692;10.168;2022-10-26T10:00:16;101309.91;;;16.55
27986;BMP280;15453;53.692;10.168;2022-10-26T10:02:44;101312.97;;;16.73
27986;BMP280;15453;53.692;10.168;2022-10-26T10:05:32;101312.97;;;16.73
27986;BMP280;15453;53.692;10.168;2022-10-26T10:08:09;101303.56;;;16.84
27986;BMP280;15453;53.692;10.168;2022-10-26T10:10:35;101307.16;;;16.95
27986;BMP280;15453;53.692;10.168;2022-10-26T10:13:14;101309.06;;;16.99
27986;BMP280;15453;53.692;10.168;2022-10-26T10:15:50;101309.06;;;16.99
27986;BMP280;15453;53.692;10.168;2022-10-26T10:18:21;101305.47;;;17.04
27986;BMP280;15453;53.692;10.168;2022-10-26T10:20:55;101308.78;;;17.21
27986;BMP280;15453;53.692;10.168;2022-10-26T10:23:31;101308.78;;;17.21
27986;BMP280;15453;53.692;10.168;2022-10-26T10:26:03;101307.94;;;17.26
27986;BMP280;15453;53.692;10.168;2022-10-26T10:28:29;101302.13;;;17.32
27986;BMP280;15453;53.692;10.168;2022-10-26T10:30:57;101305.41;;;17.39
27986;BMP280;15453;53.692;10.168;2022-10-26T10:33:38;101298.53;;;17.47
27986;BMP280;15453;53.692;10.168;2022-10-26T10:36:15;101298.47;;;17.62
27986;BMP280;15453;53.692;10.168;2022-10-26T10:38:45;101298.47;;;17.62
27986;BMP280;15453;53.692;10.168;2022-10-26T10:41:20;101290.97;;;17.67
27986;BMP280;15453;53.692;10.168;2022-10-26T10:43:53;101299.25;;;17.72
27986;BMP280;15453;53.692;10.168;2022-10-26T10:46:21;101300.91;;;17.78
27986;BMP280;15453;53.692;10.168;2022-10-26T10:48:50;101299.41;;;17.96
27986;BMP280;15453;53.692;10.168;2022-10-26T10:51:19;101296.94;;;17.99
27986;BMP280;15453;53.692;10.168;2022-10-26T10:53:54;101299.66;;;18.04
27986;BMP280;15453;53.692;10.168;2022-10-26T10:59:04;101307.41;;;18.07
27986;BMP280;15453;53.692;10.168;2022-10-26T11:01:35;101298.78;;;18.14
27986;BMP280;15453;53.692;10.168;2022-10-26T11:07:03;101302.28;;;18.34
27986;BMP280;15453;53.692;10.168;2022-10-26T11:09:32;101302.28;;;18.34
27986;BMP280;15453;53.692;10.168;2022-10-26T11:12:14;101298.66;;;18.39
27986;BMP280;15453;53.692;10.168;2022-10-26T11:14:43;101296.09;;;18.52
27986;BMP280;15453;53.692;10.168;2022-10-26T11:20:03;101286.88;;;18.57
27986;BMP280;15453;53.692;10.168;2022-10-26T11:22:39;101281.84;;;18.64
27986;BMP280;15453;53.692;10.168;2022-10-26T11:25:15;101285.41;;;18.69
27986;BMP280;15453;53.692;10.168;2022-10-26T11:27:46;101291.72;;;18.75
27986;BMP280;15453;53.692;10.168;2022-10-26T11:30:20;101291.41;;;18.81
27986;BMP280;15453;53.692;10.168;2022-10-26T11:33:02;101292.19;;;18.87
27986;BMP280;15453;53.692;10.168;2022-10-26T11:35:35;101289.84;;;18.99
27986;BMP280;15453;53.692;10.168;2022-10-26T11:38:16;101290.94;;;19.03
27986;BMP280;15453;53.692;10.168;2022-10-26T11:40:51;101293.66;;;19.08
27986;BMP280;15453;53.692;10.168;2022-10-26T11:46:08;101281.91;;;19.16
27986;BMP280;15453;53.692;10.168;2022-10-26T11:48:43;101277.72;;;19.23
27986;BMP280;15453;53.692;10.168;2022-10-26T11:51:19;101277.72;;;19.23
27986;BMP280;15453;53.692;10.168;2022-10-26T11:53:46;101287.13;;;19.27
27986;BMP280;15453;53.692;10.168;2022-10-26T11:56:26;101282.50;;;19.41
27986;BMP280;15453;53.692;10.168;2022-10-26T11:58:55;101282.50;;;19.41
27986;BMP280;15453;53.692;10.168;2022-10-26T12:01:21;101284.41;;;19.46
27986;BMP280;15453;53.692;10.168;2022-10-26T12:03:48;101283.22;;;19.52
27986;BMP280;15453;53.692;10.168;2022-10-26T12:06:20;101282.28;;;19.61
27986;BMP280;15453;53.692;10.168;2022-10-26T12:08:54;101292.22;;;19.67
27986;BMP280;15453;53.692;10.168;2022-10-26T12:11:34;101294.69;;;19.69
27986;BMP280;15453;53.692;10.168;2022-10-26T12:19:34;101286.22;;;19.79
27986;BMP280;15453;53.692;10.168;2022-10-26T12:22:01;101285.94;;;19.80
27986;BMP280;15453;53.692;10.168;2022-10-26T12:24:29;101288.97;;;19.84
27986;BMP280;15453;53.692;10.168;2022-10-26T12:26:59;101296.69;;;19.87
27986;BMP280;15453;53.692;10.168;2022-10-26T12:31:54;101302.41;;;19.95
27986;BMP280;15453;53.692;10.168;2022-10-26T12:39:26;101310.91;;;20.09
27986;BMP280;15453;53.692;10.168;2022-10-26T12:44:37;101300.22;;;20.16
27986;BMP280;15453;53.692;10.168;2022-10-26T12:47:04;101297.91;;;20.23
27986;BMP280;15453;53.692;10.168;2022-10-26T12:49:58;101304.75;;;20.30
27986;BMP280;15453;53.692;10.168;2022-10-26T12:52:42;101303.31;;;20.33
27986;BMP280;15453;53.692;10.168;2022-10-26T13:00:14;101305.66;;;20.44
27986;BMP280;15453;53.692;10.168;2022-10-26T13:05:45;101309.81;;;20.47
27986;BMP280;15453;53.692;10.168;2022-10-26T13:08:13;101317.16;;;20.56
27986;BMP280;15453;53.692;10.168;2022-10-26T13:10:59;101317.16;;;20.56
27986;BMP280;15453;53.692;10.168;2022-10-26T13:13:25;101306.34;;;20.55
27986;BMP280;15453;53.692;10.168;2022-10-26T13:15:55;101307.16;;;20.55
27986;BMP280;15453;53.692;10.168;2022-10-26T13:18:21;101307.69;;;20.57
27986;BMP280;15453;53.692;10.168;2022-10-26T13:21:09;101309.94;;;20.55
27986;BMP280;15453;53.692;10.168;2022-10-26T13:23:41;101310.00;;;20.50
27986;BMP280;15453;53.692;10.168;2022-10-26T13:26:08;101312.88;;;20.45
27986;BMP280;15453;53.692;10.168;2022-10-26T13:31:01;101305.72;;;20.39
27986;BMP280;15453;53.692;10.168;2022-10-26T13:33:33;101305.19;;;20.37
27986;BMP280;15453;53.692;10.168;2022-10-26T13:36:01;101305.00;;;20.34
27986;BMP280;15453;53.692;10.168;2022-10-26T13:38:30;101308.06;;;20.32
27986;BMP280;15453;53.692;10.168;2022-10-26T13:41:05;101304.22;;;20.28
27986;BMP280;15453;53.692;10.168;2022-10-26T13:43:32;101309.03;;;20.23
27986;BMP280;15453;53.692;10.168;2022-10-26T13:46:01;101306.53;;;20.21
27986;BMP280;15453;53.692;10.168;2022-10-26T13:48:34;101301.56;;;20.18
27986;BMP280;15453;53.692;10.168;2022-10-26T13:51:03;101300.22;;;20.16
27986;BMP280;15453;53.692;10.168;2022-10-26T13:57:03;101306.69;;;20.11
27986;BMP280;15453;53.692;10.168;2022-10-26T13:59:31;101306.69;;;20.11
27986;BMP280;15453;53.692;10.168;2022-10-26T14:02:21;101305.84;;;20.11
27986;BMP280;15453;53.692;10.168;2022-10-26T14:04:51;101300.34;;;20.06
27986;BMP280;15453;53.692;10.168;2022-10-26T14:07:20;101296.44;;;20.07
27986;BMP280;15453;53.692;10.168;2022-10-26T14:09:51;101301.97;;;20.07
27986;BMP280;15453;53.692;10.168;2022-10-26T14:12:17;101301.19;;;20.06
27986;BMP280;15453;53.692;10.168;2022-10-26T14:14:42;101305.91;;;20.06
27986;BMP280;15453;53.692;10.168;2022-10-26T14:17:17;101305.06;;;20.05
27986;BMP280;15453;53.692;10.168;2022-10-26T14:19:43;101310.31;;;20.07
27986;BMP280;15453;53.692;10.168;2022-10-26T14:22:18;101297.81;;;20.09
27986;BMP280;15453;53.692;10.168;2022-10-26T14:24:50;101304.22;;;20.10
27986;BMP280;15453;53.692;10.168;2022-10-26T14:27:21;101313.91;;;20.12
27986;BMP280;15453;53.692;10.168;2022-10-26T14:29:47;101309.47;;;20.11
27986;BMP280;15453;53.692;10.168;2022-10-26T14:32:22;101309.19;;;20.13
27986;BMP280;15453;53.692;10.168;2022-10-26T14:34:48;101314.19;;;20.11
27986;BMP280;15453;53.692;10.168;2022-10-26T14:37:23;101307.50;;;20.12
27986;BMP280;15453;53.692;10.168;2022-10-26T14:39:49;101315.03;;;20.11
27986;BMP280;15453;53.692;10.168;2022-10-26T14:42:24;101309.78;;;20.10
27986;BMP280;15453;53.692;10.168;2022-10-26T14:44:51;101315.59;;;20.08
27986;BMP280;15453;53.692;10.168;2022-10-26T14:47:22;101319.25;;;20.09
27986;BMP280;15453;53.692;10.168;2022-10-26T14:49:48;101337.00;;;20.08
27986;BMP280;15453;53.692;10.168;2022-10-26T14:52:20;101333.41;;;20.07
27986;BMP280;15453;53.692;10.168;2022-10-26T14:55:12;101334.00;;;20.04
27986;BMP280;15453;53.692;10.168;2022-10-26T14:57:39;101334.28;;;20.03
27986;BMP280;15453;53.692;10.168;2022-10-26T15:00:13;101341.81;;;20.02
27986;BMP280;15453;53.692;10.168;2022-10-26T15:02:46;101340.16;;;20.01
27986;BMP280;15453;53.692;10.168;2022-10-26T15:05:18;101343.53;;;19.98
27986;BMP280;15453;53.692;10.168;2022-10-26T15:07:44;101342.19;;;19.96
27986;BMP280;15453;53.692;10.168;2022-10-26T15:13:08;101356.13;;;19.91
27986;BMP280;15453;53.692;10.168;2022-10-26T15:15:33;101363.66;;;19.90
27986;BMP280;15453;53.692;10.168;2022-10-26T15:17:59;101362.53;;;19.91
27986;BMP280;15453;53.692;10.168;2022-10-26T15:20:26;101353.97;;;19.88